Time;durP1;ratioP1;P1;durP2;ratioP2;P2;SDS_P1;SDS_P2;PMS_P1;PMS_P2;Temp;Humidity;BMP_temperature;BMP_pressure;BME280_temperature;BME280_humidity;BME280_pressure;Samples;Min_cycle;Max_cycle;Signal;HPM_P1;HPM_P2
2023/01/02 00:00:16;;;;;;;7.90;1.83;;;;;;;;;;5078309;28;20530;-66
2023/01/02 00:02:43;;;;;;;9.65;1.67;;;;;;;;;;5096538;28;20453;-66
2023/01/02 00:05:09;;;;;;;16.02;2.40;;;;;;;;;;5086948;28;20039;-66
2023/01/02 00:07:35;;;;;;;8.88;2.20;;;;;;;;;;5080605;28;20082;-66
2023/01/02 00:10:01;;;;;;;10.65;2.25;;;;;;;;;;5076801;28;20047;-67
2023/01/02 00:12:27;;;;;;;8.50;2.40;;;;;;;;;;5100011;28;20042;-66
2023/01/02 00:14:54;;;;;;;18.00;2.35;;;;;;;;;;5096150;28;20158;-66
2023/01/02 00:17:20;;;;;;;8.43;2.00;;;;;;;;;;5095000;28;20046;-67
2023/01/02 00:19:46;;;;;;;17.00;2.60;;;;;;;;;;5091034;28;20045;-67
2023/01/02 00:22:12;;;;;;;11.50;2.65;;;;;;;;;;5077722;28;20055;-66
2023/01/02 00:24:38;;;;;;;8.95;2.10;;;;;;;;;;5097069;28;20043;-66
2023/01/02 00:27:04;;;;;;;11.35;2.47;;;;;;;;;;5100537;28;20047;-66
2023/01/02 00:29:30;;;;;;;7.38;2.05;;;;;;;;;;5079680;28;20059;-66
2023/01/02 00:31:58;;;;;;;9.43;3.17;;;;;;;;;;5077748;28;20086;-66
2023/01/02 00:34:24;;;;;;;9.27;2.05;;;;;;;;;;5078820;28;20458;-66
2023/01/02 00:36:50;;;;;;;10.38;2.58;;;;;;;;;;5077544;28;20440;-66
2023/01/02 00:39:16;;;;;;;10.18;3.05;;;;;;;;;;5096755;28;20104;-66
2023/01/02 00:41:43;;;;;;;10.55;2.58;;;;;;;;;;5078391;28;20407;-66
2023/01/02 00:44:09;;;;;;;10.38;3.45;;;;;;;;;;5097444;28;20079;-66
2023/01/02 00:46:35;;;;;;;19.60;3.70;;;;;;;;;;5098684;28;20108;-66
2023/01/02 00:49:01;;;;;;;12.43;3.65;;;;;;;;;;5098128;28;20161;-67
2023/01/02 00:51:27;;;;;;;12.88;3.67;;;;;;;;;;5093348;28;20054;-67
2023/01/02 00:53:53;;;;;;;12.98;4.00;;;;;;;;;;5096237;28;21541;-66
2023/01/02 00:56:20;;;;;;;16.80;4.07;;;;;;;;;;5078218;28;20046;-66
2023/01/02 00:58:46;;;;;;;14.63;4.75;;;;;;;;;;5096579;28;20050;-66
2023/01/02 01:01:12;;;;;;;11.75;4.60;;;;;;;;;;5095368;28;20130;-66
2023/01/02 01:03:42;;;;;;;13.65;5.40;;;;;;;;;;5098137;28;20032;-66
2023/01/02 01:06:09;;;;;;;16.42;6.43;;;;;;;;;;5096828;28;20051;-66
2023/01/02 01:08:35;;;;;;;17.30;7.32;;;;;;;;;;5097329;28;20063;-66
2023/01/02 01:11:11;;;;;;;20.15;7.88;;;;;;;;;;5100961;28;20039;-66
2023/01/02 01:13:37;;;;;;;15.50;7.65;;;;;;;;;;5085142;28;21243;-66
2023/01/02 01:16:08;;;;;;;17.75;9.82;;;;;;;;;;5095223;28;20043;-66
2023/01/02 01:18:35;;;;;;;23.17;10.48;;;;;;;;;;5076837;28;20126;-66
2023/01/02 01:21:11;;;;;;;25.67;11.27;;;;;;;;;;5095563;28;20059;-66
2023/01/02 01:23:38;;;;;;;25.42;11.40;;;;;;;;;;5095828;28;20047;-67
2023/01/02 01:26:06;;;;;;;26.00;12.65;;;;;;;;;;5094287;28;20502;-66
2023/01/02 01:28:33;;;;;;;24.95;13.38;;;;;;;;;;5096024;28;20126;-66
2023/01/02 01:31:04;;;;;;;24.20;13.65;;;;;;;;;;5094761;28;20047;-66
2023/01/02 01:33:31;;;;;;;30.35;14.20;;;;;;;;;;5075029;28;20055;-66
2023/01/02 01:36:01;;;;;;;26.52;14.30;;;;;;;;;;5097694;28;20172;-66
2023/01/02 01:38:27;;;;;;;31.83;15.50;;;;;;;;;;5073993;28;20244;-66
2023/01/02 01:40:54;;;;;;;27.10;14.35;;;;;;;;;;5094287;28;20126;-66
2023/01/02 01:43:35;;;;;;;26.90;15.05;;;;;;;;;;5074781;28;20056;-66
2023/01/02 01:46:02;;;;;;;27.27;13.57;;;;;;;;;;5096266;28;20118;-66
2023/01/02 01:48:28;;;;;;;25.58;13.20;;;;;;;;;;5073815;28;20130;-66
2023/01/02 01:50:55;;;;;;;27.75;13.23;;;;;;;;;;5093296;28;20031;-66
2023/01/02 01:53:21;;;;;;;21.27;12.93;;;;;;;;;;5060636;28;20039;-66
2023/01/02 01:55:51;;;;;;;24.23;12.98;;;;;;;;;;5098473;28;20114;-66
2023/01/02 01:58:20;;;;;;;26.52;13.70;;;;;;;;;;5096709;28;20047;-66
2023/01/02 02:00:47;;;;;;;28.13;14.00;;;;;;;;;;5077506;28;20122;-66
2023/01/02 02:03:15;;;;;;;30.02;14.63;;;;;;;;;;5094912;28;20071;-66
2023/01/02 02:05:42;;;;;;;29.17;14.05;;;;;;;;;;5078196;28;20047;-66
2023/01/02 02:08:15;;;;;;;32.55;13.93;;;;;;;;;;5098182;28;20101;-66
2023/01/02 02:10:41;;;;;;;28.60;12.88;;;;;;;;;;5097416;28;20048;-66
2023/01/02 02:13:07;;;;;;;28.08;13.40;;;;;;;;;;5077327;28;20077;-66
2023/01/02 02:15:40;;;;;;;29.58;14.13;;;;;;;;;;5094430;28;20066;-66
2023/01/02 02:18:19;;;;;;;29.35;15.35;;;;;;;;;;5077193;28;20044;-66
2023/01/02 02:20:53;;;;;;;34.10;15.70;;;;;;;;;;5077425;28;21608;-66
2023/01/02 02:23:19;;;;;;;;;;;;;;;;;;5078415;28;20047;-66
2023/01/02 02:25:53;;;;;;;37.20;17.27;;;;;;;;;;5091284;28;19935;-66
2023/01/02 02:28:37;;;;;;;33.00;18.55;;;;;;;;;;5093425;28;20036;-66
2023/01/02 02:31:16;;;;;;;46.38;22.80;;;;;;;;;;5097351;28;20051;-66
2023/01/02 02:33:55;;;;;;;44.42;21.55;;;;;;;;;;5095158;28;20039;-66
2023/01/02 02:36:27;;;;;;;46.58;23.42;;;;;;;;;;5097380;28;20046;-66
2023/01/02 02:39:01;;;;;;;48.63;24.88;;;;;;;;;;5094066;28;20130;-66
2023/01/02 02:41:34;;;;;;;49.35;25.00;;;;;;;;;;5094461;28;20730;-66
2023/01/02 02:44:04;;;;;;;51.97;25.45;;;;;;;;;;5074902;28;20040;-66
2023/01/02 02:46:45;;;;;;;52.80;28.00;;;;;;;;;;5073830;28;20052;-67
2023/01/02 02:49:30;;;;;;;53.63;28.75;;;;;;;;;;5075064;28;20036;-67
2023/01/02 02:52:05;;;;;;;58.03;30.20;;;;;;;;;;5073567;28;20585;-67
2023/01/02 02:54:36;;;;;;;63.88;29.98;;;;;;;;;;5074340;28;20480;-67
2023/01/02 02:57:03;;;;;;;64.78;31.48;;;;;;;;;;5074994;28;20042;-67
2023/01/02 02:59:30;;;;;;;58.35;31.83;;;;;;;;;;5075832;28;20044;-67
2023/01/02 03:01:56;;;;;;;64.55;33.25;;;;;;;;;;5073796;28;20049;-67
2023/01/02 03:04:22;;;;;;;72.70;34.22;;;;;;;;;;5075511;28;20047;-67
2023/01/02 03:06:48;;;;;;;67.88;32.75;;;;;;;;;;5073092;28;20131;-67
2023/01/02 03:09:18;;;;;;;61.80;34.03;;;;;;;;;;5073881;28;20071;-66
2023/01/02 03:11:55;;;;;;;66.20;32.97;;;;;;;;;;5077777;28;20040;-67
2023/01/02 03:14:30;;;;;;;60.85;32.05;;;;;;;;;;5075916;28;20067;-67
2023/01/02 03:17:01;;;;;;;68.05;32.67;;;;;;;;;;5074812;28;20040;-67
2023/01/02 03:19:31;;;;;;;62.35;31.45;;;;;;;;;;5075625;28;20036;-67
2023/01/02 03:22:01;;;;;;;51.95;29.08;;;;;;;;;;5075866;28;20057;-67
2023/01/02 03:24:28;;;;;;;59.42;29.95;;;;;;;;;;5074886;28;20161;-67
2023/01/02 03:26:58;;;;;;;57.47;28.83;;;;;;;;;;5077047;28;20040;-67
2023/01/02 03:29:30;;;;;;;62.30;29.48;;;;;;;;;;5076057;28;20040;-67
2023/01/02 03:31:57;;;;;;;60.78;29.67;;;;;;;;;;5075471;28;20454;-67
2023/01/02 03:34:25;;;;;;;64.38;30.35;;;;;;;;;;5076891;28;20426;-67
2023/01/02 03:36:54;;;;;;;54.20;27.58;;;;;;;;;;5076598;28;20450;-67
2023/01/02 03:39:21;;;;;;;57.65;26.58;;;;;;;;;;5077155;28;20040;-67
2023/01/02 03:41:53;;;;;;;52.25;25.65;;;;;;;;;;5078954;28;20047;-67
2023/01/02 03:44:22;;;;;;;55.03;27.80;;;;;;;;;;5074730;28;20158;-67
2023/01/02 03:46:51;;;;;;;50.88;27.25;;;;;;;;;;5074823;28;20078;-67
2023/01/02 03:49:23;;;;;;;61.72;28.25;;;;;;;;;;5074997;28;20044;-67
2023/01/02 03:51:49;;;;;;;67.88;29.30;;;;;;;;;;5078036;28;20177;-67
2023/01/02 03:54:17;;;;;;;62.72;28.90;;;;;;;;;;5079265;28;20504;-67
2023/01/02 03:56:50;;;;;;;62.78;29.58;;;;;;;;;;5075268;28;20052;-67
2023/01/02 03:59:24;;;;;;;57.47;27.45;;;;;;;;;;5076076;28;22300;-67
2023/01/02 04:01:55;;;;;;;55.85;27.65;;;;;;;;;;5074005;28;20059;-67
2023/01/02 04:04:27;;;;;;;56.05;27.40;;;;;;;;;;5074684;28;20157;-67
2023/01/02 04:06:55;;;;;;;57.63;27.52;;;;;;;;;;5078666;28;20047;-66
2023/01/02 04:09:24;;;;;;;60.83;28.15;;;;;;;;;;5077468;28;20047;-67
2023/01/02 04:11:53;;;;;;;56.55;28.67;;;;;;;;;;5079056;28;20081;-66
2023/01/02 04:14:23;;;;;;;57.28;27.10;;;;;;;;;;5081824;28;20132;-67
2023/01/02 04:16:50;;;;;;;53.60;27.00;;;;;;;;;;5077532;28;20403;-67
2023/01/02 04:19:21;;;;;;;52.88;27.05;;;;;;;;;;5073400;28;20036;-67
2023/01/02 04:21:49;;;;;;;60.60;27.58;;;;;;;;;;5075909;28;20048;-66
2023/01/02 04:24:27;;;;;;;59.30;28.10;;;;;;;;;;5075478;28;20132;-67
2023/01/02 04:26:58;;;;;;;55.33;28.23;;;;;;;;;;5076178;28;20102;-67
2023/01/02 04:29:24;;;;;;;60.97;28.17;;;;;;;;;;5075092;28;20048;-66
2023/01/02 04:31:58;;;;;;;58.65;27.25;;;;;;;;;;5078439;28;20168;-66
2023/01/02 04:34:25;;;;;;;54.20;26.80;;;;;;;;;;5077083;28;20506;-66
2023/01/02 04:36:51;;;;;;;56.63;26.55;;;;;;;;;;5077225;28;20122;-66
2023/01/02 04:39:19;;;;;;;64.57;28.23;;;;;;;;;;5076345;28;20044;-66
2023/01/02 04:41:45;;;;;;;65.18;28.90;;;;;;;;;;5077261;28;20044;-66
2023/01/02 04:44:12;;;;;;;61.88;27.17;;;;;;;;;;5092397;28;20035;-66
2023/01/02 04:46:38;;;;;;;65.38;27.70;;;;;;;;;;5095670;28;20104;-66
2023/01/02 04:49:04;;;;;;;60.55;26.55;;;;;;;;;;5077915;28;20047;-67
2023/01/02 04:51:30;;;;;;;63.28;26.52;;;;;;;;;;5096504;28;20059;-66
2023/01/02 04:53:56;;;;;;;58.40;25.40;;;;;;;;;;5097146;28;20047;-67
2023/01/02 04:56:22;;;;;;;57.25;25.65;;;;;;;;;;5097372;28;20409;-67
2023/01/02 04:58:49;;;;;;;56.28;25.60;;;;;;;;;;5078794;28;20065;-67
2023/01/02 05:01:16;;;;;;;45.08;23.08;;;;;;;;;;5077752;28;21587;-67
2023/01/02 05:03:43;;;;;;;53.58;24.23;;;;;;;;;;5098021;28;20046;-67
2023/01/02 05:06:10;;;;;;;53.33;25.13;;;;;;;;;;5096123;28;20040;-67
2023/01/02 05:08:37;;;;;;;56.35;25.65;;;;;;;;;;5077056;28;20459;-67
2023/01/02 05:11:05;;;;;;;58.97;25.40;;;;;;;;;;5076046;28;20040;-67
2023/01/02 05:13:31;;;;;;;54.05;24.52;;;;;;;;;;5075155;28;20036;-67
2023/01/02 05:15:57;;;;;;;54.53;25.08;;;;;;;;;;5093833;28;20091;-67
2023/01/02 05:18:24;;;;;;;59.60;25.85;;;;;;;;;;5097519;28;20039;-66
2023/01/02 05:20:50;;;;;;;46.60;23.52;;;;;;;;;;5093552;28;20119;-66
2023/01/02 05:26:01;;;;;;;53.38;23.58;;;;;;;;;;5093333;28;20457;-66
2023/01/02 05:28:27;;;;;;;41.45;21.92;;;;;;;;;;5074368;28;20039;-66
2023/01/02 05:30:53;;;;;;;44.75;20.90;;;;;;;;;;5077835;28;20120;-66
2023/01/02 05:33:19;;;;;;;38.22;20.00;;;;;;;;;;5095506;28;20050;-66
2023/01/02 05:35:45;;;;;;;39.05;20.48;;;;;;;;;;5093280;28;20035;-66
2023/01/02 05:38:12;;;;;;;32.53;18.52;;;;;;;;;;5094939;28;20074;-65
2023/01/02 05:40:38;;;;;;;32.53;18.60;;;;;;;;;;5076841;28;20172;-65
2023/01/02 05:43:04;;;;;;;30.67;18.15;;;;;;;;;;5076204;28;20052;-66
2023/01/02 05:45:30;;;;;;;35.20;18.73;;;;;;;;;;5076558;28;20047;-66
2023/01/02 05:47:56;;;;;;;35.28;19.52;;;;;;;;;;5076601;28;20184;-66
2023/01/02 05:50:22;;;;;;;32.08;18.63;;;;;;;;;;5076656;28;20046;-66
2023/01/02 05:52:49;;;;;;;35.20;18.75;;;;;;;;;;5095457;28;20106;-66
2023/01/02 05:55:15;;;;;;;29.42;16.17;;;;;;;;;;5082235;28;20043;-66
2023/01/02 05:57:41;;;;;;;27.33;15.65;;;;;;;;;;5076387;28;20054;-66
2023/01/02 06:00:08;;;;;;;33.83;17.33;;;;;;;;;;5094107;28;20036;-66
2023/01/02 06:02:34;;;;;;;37.28;17.45;;;;;;;;;;5094509;28;20090;-66
2023/01/02 06:05:00;;;;;;;50.22;17.92;;;;;;;;;;5095534;28;20198;-66
2023/01/02 06:07:26;;;;;;;61.30;19.05;;;;;;;;;;5096616;28;20036;-66
2023/01/02 06:09:52;;;;;;;34.95;14.55;;;;;;;;;;5094231;28;20652;-66
2023/01/02 06:12:18;;;;;;;41.33;11.23;;;;;;;;;;5074918;28;20124;-66
2023/01/02 06:14:45;;;;;;;32.85;8.32;;;;;;;;;;5075743;28;20720;-65
2023/01/02 06:17:11;;;;;;;23.33;7.03;;;;;;;;;;5095261;28;20459;-66
2023/01/02 06:19:37;;;;;;;25.02;6.38;;;;;;;;;;5075705;28;20044;-65
2023/01/02 06:22:03;;;;;;;18.73;5.30;;;;;;;;;;5092891;28;20082;-66
2023/01/02 06:24:29;;;;;;;13.05;3.90;;;;;;;;;;5094172;28;20725;-65
2023/01/02 06:26:55;;;;;;;15.43;3.67;;;;;;;;;;5072906;28;20095;-65
2023/01/02 06:29:22;;;;;;;16.42;4.05;;;;;;;;;;5074210;28;20130;-65
2023/01/02 06:31:48;;;;;;;13.80;3.80;;;;;;;;;;5073993;28;20041;-65
2023/01/02 06:34:16;;;;;;;19.17;4.70;;;;;;;;;;5094883;28;20145;-65
2023/01/02 06:36:42;;;;;;;11.95;3.10;;;;;;;;;;5095282;28;20058;-65
2023/01/02 06:39:08;;;;;;;6.15;1.83;;;;;;;;;;5074885;28;20176;-65
2023/01/02 06:41:34;;;;;;;5.55;2.15;;;;;;;;;;5079158;28;20044;-65
2023/01/02 06:44:01;;;;;;;5.50;1.73;;;;;;;;;;5071754;28;20047;-67
2023/01/02 06:46:27;;;;;;;6.25;1.50;;;;;;;;;;5071858;28;20203;-65
2023/01/02 06:48:53;;;;;;;11.32;1.77;;;;;;;;;;5074187;28;20091;-65
2023/01/02 06:51:20;;;;;;;5.65;1.20;;;;;;;;;;5073519;28;20055;-66
2023/01/02 06:53:47;;;;;;;5.88;1.33;;;;;;;;;;5074077;28;20040;-66
2023/01/02 06:56:15;;;;;;;7.15;1.35;;;;;;;;;;5072994;28;20501;-66
2023/01/02 06:58:41;;;;;;;8.82;1.23;;;;;;;;;;5081608;28;20052;-66
2023/01/02 07:01:08;;;;;;;8.93;1.60;;;;;;;;;;5088032;28;20364;-66
2023/01/02 07:03:35;;;;;;;7.15;1.40;;;;;;;;;;5087304;28;20048;-66
2023/01/02 07:06:02;;;;;;;5.88;1.35;;;;;;;;;;5086959;28;20545;-66
2023/01/02 07:08:28;;;;;;;3.08;1.05;;;;;;;;;;5087182;28;20052;-66
2023/01/02 07:10:54;;;;;;;7.15;1.05;;;;;;;;;;5085861;28;20052;-66
2023/01/02 07:13:20;;;;;;;7.35;1.50;;;;;;;;;;5085386;28;20126;-66
2023/01/02 07:15:46;;;;;;;7.40;1.30;;;;;;;;;;5075764;28;20047;-66
2023/01/02 07:18:13;;;;;;;8.30;1.42;;;;;;;;;;5077644;28;20044;-66
2023/01/02 07:20:39;;;;;;;4.82;1.00;;;;;;;;;;5075245;28;20044;-67
2023/01/02 07:23:05;;;;;;;9.07;1.65;;;;;;;;;;5075364;28;20131;-66
2023/01/02 07:25:31;;;;;;;8.13;1.20;;;;;;;;;;5077840;28;20047;-66
2023/01/02 07:27:58;;;;;;;7.65;1.70;;;;;;;;;;5076371;28;20497;-66
2023/01/02 07:30:25;;;;;;;6.35;1.75;;;;;;;;;;5077880;28;20032;-66
2023/01/02 07:32:52;;;;;;;7.88;2.10;;;;;;;;;;5077316;28;20048;-66
2023/01/02 07:35:18;;;;;;;8.38;1.48;;;;;;;;;;5077560;28;20125;-65
2023/01/02 07:37:45;;;;;;;8.95;1.63;;;;;;;;;;5082378;28;20052;-66
2023/01/02 07:40:11;;;;;;;11.90;2.40;;;;;;;;;;5073716;28;20055;-66
2023/01/02 07:42:37;;;;;;;7.22;1.88;;;;;;;;;;5081492;28;20036;-66
2023/01/02 07:45:03;;;;;;;12.20;2.17;;;;;;;;;;5101329;28;20117;-66
2023/01/02 07:47:30;;;;;;;11.02;2.28;;;;;;;;;;5102381;28;20090;-65
2023/01/02 07:49:56;;;;;;;11.43;2.20;;;;;;;;;;5100342;28;20039;-66
2023/01/02 07:52:22;;;;;;;12.30;2.08;;;;;;;;;;5102249;28;20164;-66
2023/01/02 07:54:48;;;;;;;10.45;2.20;;;;;;;;;;5084552;28;20161;-66
2023/01/02 07:57:14;;;;;;;11.95;3.20;;;;;;;;;;5102400;28;20048;-71
2023/01/02 07:59:43;;;;;;;7.22;2.30;;;;;;;;;;5083620;28;20051;-65
2023/01/02 08:02:10;;;;;;;9.45;2.88;;;;;;;;;;5099868;28;20135;-66
2023/01/02 08:04:36;;;;;;;12.35;1.80;;;;;;;;;;5081064;28;20081;-66
2023/01/02 08:07:02;;;;;;;10.15;2.13;;;;;;;;;;5098405;28;20081;-65
2023/01/02 08:09:28;;;;;;;10.27;2.42;;;;;;;;;;5100247;28;20043;-66
2023/01/02 08:11:54;;;;;;;5.43;1.65;;;;;;;;;;5102953;28;20070;-66
2023/01/02 08:14:21;;;;;;;7.15;1.92;;;;;;;;;;5083135;28;20480;-65
2023/01/02 08:16:47;;;;;;;12.20;2.63;;;;;;;;;;5101009;28;20551;-66
2023/01/02 08:19:13;;;;;;;8.90;2.33;;;;;;;;;;5098414;28;20047;-65
2023/01/02 08:21:39;;;;;;;6.80;1.90;;;;;;;;;;5082605;28;20450;-66
2023/01/02 08:24:07;;;;;;;12.77;2.13;;;;;;;;;;5081759;28;20125;-65
2023/01/02 08:26:33;;;;;;;13.15;2.22;;;;;;;;;;5102779;28;20105;-66
2023/01/02 08:28:59;;;;;;;8.35;2.20;;;;;;;;;;5105223;28;20126;-65
2023/01/02 08:31:25;;;;;;;6.40;1.80;;;;;;;;;;5082949;28;20044;-66
2023/01/02 08:33:51;;;;;;;14.82;2.40;;;;;;;;;;5103187;28;20054;-65
2023/01/02 08:36:18;;;;;;;11.45;2.65;;;;;;;;;;5084146;28;20055;-66
2023/01/02 08:38:44;;;;;;;11.43;2.95;;;;;;;;;;5082595;28;20137;-65
2023/01/02 08:41:10;;;;;;;11.05;3.40;;;;;;;;;;5101341;28;20499;-65
2023/01/02 08:43:36;;;;;;;8.88;3.28;;;;;;;;;;5083326;28;20556;-66
2023/01/02 08:46:04;;;;;;;13.75;3.22;;;;;;;;;;5104814;28;20429;-66
2023/01/02 08:48:30;;;;;;;11.40;3.00;;;;;;;;;;5104788;28;20059;-65
2023/01/02 08:50:56;;;;;;;9.65;3.40;;;;;;;;;;5105584;28;20115;-65
2023/01/02 08:53:22;;;;;;;11.90;3.42;;;;;;;;;;5103068;28;20046;-66
2023/01/02 08:55:48;;;;;;;8.68;3.47;;;;;;;;;;5087039;28;20118;-65
2023/01/02 08:58:14;;;;;;;12.88;3.40;;;;;;;;;;5105586;28;20491;-66
2023/01/02 09:00:41;;;;;;;10.80;3.42;;;;;;;;;;5102426;28;20372;-66
2023/01/02 09:03:07;;;;;;;11.13;3.13;;;;;;;;;;5082597;28;20391;-66
2023/01/02 09:05:33;;;;;;;13.20;3.90;;;;;;;;;;5102544;28;20036;-66
2023/01/02 09:08:01;;;;;;;10.57;2.83;;;;;;;;;;5101672;28;20080;-65
2023/01/02 09:10:27;;;;;;;15.15;3.22;;;;;;;;;;5102410;28;20032;-66
2023/01/02 09:12:53;;;;;;;8.70;3.05;;;;;;;;;;5099809;28;20035;-66
2023/01/02 09:15:19;;;;;;;12.60;3.55;;;;;;;;;;5067387;28;20039;-77
2023/01/02 09:17:45;;;;;;;14.65;4.07;;;;;;;;;;5065210;28;20043;-65
2023/01/02 09:20:11;;;;;;;10.20;3.63;;;;;;;;;;5099994;28;20063;-64
2023/01/02 09:22:39;;;;;;;14.68;4.90;;;;;;;;;;5098459;28;20130;-65
2023/01/02 09:25:05;;;;;;;11.95;2.95;;;;;;;;;;5080546;28;20055;-65
2023/01/02 09:27:32;;;;;;;7.88;2.30;;;;;;;;;;5099925;28;20071;-65
2023/01/02 09:29:58;;;;;;;7.20;2.40;;;;;;;;;;5100657;28;20044;-65
2023/01/02 09:32:24;;;;;;;6.75;2.45;;;;;;;;;;5103010;28;21450;-65
2023/01/02 09:34:50;;;;;;;8.70;2.63;;;;;;;;;;5099800;28;20183;-67
2023/01/02 09:37:17;;;;;;;10.18;2.30;;;;;;;;;;5101478;28;20047;-66
2023/01/02 09:39:43;;;;;;;5.97;2.00;;;;;;;;;;5077336;28;20047;-67
2023/01/02 09:42:19;;;;;;;8.15;2.00;;;;;;;;;;5119609;27;20601;-66
2023/01/02 09:44:47;;;;;;;8.52;1.27;;;;;;;;;;5108579;27;20083;-68
2023/01/02 09:47:18;;;;;;;4.63;1.65;;;;;;;;;;5119598;28;20039;-68
2023/01/02 09:49:55;;;;;;;5.25;2.00;;;;;;;;;;5116807;27;20729;-68
2023/01/02 09:52:26;;;;;;;4.15;1.02;;;;;;;;;;5118952;27;20054;-69
2023/01/02 09:54:53;;;;;;;4.20;1.45;;;;;;;;;;5120758;27;20058;-68
2023/01/02 09:57:26;;;;;;;3.70;1.20;;;;;;;;;;5113582;27;20051;-69
2023/01/02 10:00:00;;;;;;;3.97;1.60;;;;;;;;;;5119244;27;20039;-68
2023/01/02 10:02:39;;;;;;;6.57;1.80;;;;;;;;;;5115588;27;20043;-68
2023/01/02 10:05:05;;;;;;;5.32;1.80;;;;;;;;;;5116837;27;20047;-68
2023/01/02 10:07:34;;;;;;;10.75;2.45;;;;;;;;;;5110170;27;20071;-68
2023/01/02 10:10:13;;;;;;;9.15;2.40;;;;;;;;;;5110265;27;20150;-68
2023/01/02 10:12:44;;;;;;;6.90;2.30;;;;;;;;;;5118228;27;20088;-66
2023/01/02 10:15:13;;;;;;;11.50;2.83;;;;;;;;;;5117057;27;20043;-76
2023/01/02 10:17:43;;;;;;;7.03;2.38;;;;;;;;;;5114926;27;20422;-67
2023/01/02 10:20:18;;;;;;;5.95;2.70;;;;;;;;;;5121734;27;20088;-66
2023/01/02 10:22:48;;;;;;;7.75;2.92;;;;;;;;;;5121812;27;20077;-66
2023/01/02 10:25:21;;;;;;;8.70;2.72;;;;;;;;;;5120110;27;21207;-66
2023/01/02 10:27:53;;;;;;;10.43;2.77;;;;;;;;;;5113392;27;20143;-66
2023/01/02 10:30:21;;;;;;;8.02;2.38;;;;;;;;;;5120792;27;20104;-67
2023/01/02 10:33:05;;;;;;;5.88;2.13;;;;;;;;;;5119115;28;20070;-66
2023/01/02 10:35:36;;;;;;;7.85;2.28;;;;;;;;;;5122394;27;20054;-66
2023/01/02 10:38:02;;;;;;;8.40;2.25;;;;;;;;;;5119302;27;20079;-64
2023/01/02 10:40:29;;;;;;;10.98;2.40;;;;;;;;;;5120756;27;20181;-66
2023/01/02 10:42:56;;;;;;;8.23;2.13;;;;;;;;;;5108834;27;20120;-67
2023/01/02 10:45:23;;;;;;;6.30;2.55;;;;;;;;;;5121612;28;20043;-66
2023/01/02 10:47:49;;;;;;;10.75;2.50;;;;;;;;;;5121177;27;20050;-66
2023/01/02 10:50:22;;;;;;;10.18;2.33;;;;;;;;;;5119697;27;20071;-66
2023/01/02 10:52:49;;;;;;;7.40;2.72;;;;;;;;;;5102184;27;20039;-66
2023/01/02 10:55:33;;;;;;;8.93;2.60;;;;;;;;;;5100205;28;20055;-66
2023/01/02 10:58:03;;;;;;;10.77;3.10;;;;;;;;;;5094212;28;20051;-66
2023/01/02 11:00:31;;;;;;;7.38;2.67;;;;;;;;;;5106292;28;20063;-66
2023/01/02 11:02:59;;;;;;;14.02;2.85;;;;;;;;;;5107750;28;20093;-66
2023/01/02 11:05:27;;;;;;;9.63;2.85;;;;;;;;;;5106429;28;20539;-66
2023/01/02 11:07:54;;;;;;;9.13;2.72;;;;;;;;;;5094365;28;20074;-66
2023/01/02 11:10:27;;;;;;;10.68;2.63;;;;;;;;;;5106786;28;20103;-66
2023/01/02 11:12:53;;;;;;;9.13;2.42;;;;;;;;;;5105834;28;20028;-66
2023/01/02 11:15:25;;;;;;;7.88;2.20;;;;;;;;;;5097387;28;20063;-66
2023/01/02 11:17:51;;;;;;;14.20;2.22;;;;;;;;;;5105854;28;20039;-66
2023/01/02 11:20:23;;;;;;;11.18;2.20;;;;;;;;;;5106223;28;20043;-66
2023/01/02 11:22:49;;;;;;;7.40;1.73;;;;;;;;;;5105051;28;20506;-66
2023/01/02 11:25:20;;;;;;;6.25;1.63;;;;;;;;;;5095058;28;20348;-80
2023/01/02 11:27:46;;;;;;;13.18;2.45;;;;;;;;;;5094811;27;20128;-78
2023/01/02 11:30:26;;;;;;;10.32;1.83;;;;;;;;;;5096683;28;20502;-66
2023/01/02 11:33:05;;;;;;;12.93;1.77;;;;;;;;;;5106012;27;20043;-66
2023/01/02 11:35:49;;;;;;;6.68;1.70;;;;;;;;;;5101608;27;20403;-66
2023/01/02 11:38:18;;;;;;;6.45;1.52;;;;;;;;;;5106955;27;20141;-66
2023/01/02 11:40:53;;;;;;;7.82;2.25;;;;;;;;;;5102094;28;20504;-66
2023/01/02 11:46:10;;;;;;;13.88;2.28;;;;;;;;;;5095289;28;20400;-75
2023/01/02 11:48:36;;;;;;;12.27;2.00;;;;;;;;;;5106490;28;20044;-67
2023/01/02 11:51:02;;;;;;;11.45;2.53;;;;;;;;;;5104400;28;20420;-67
2023/01/02 11:53:33;;;;;;;18.15;2.38;;;;;;;;;;5107006;28;20071;-67
2023/01/02 11:56:17;;;;;;;9.05;1.67;;;;;;;;;;5104598;28;20403;-67
2023/01/02 11:58:43;;;;;;;13.60;2.35;;;;;;;;;;5091305;28;20097;-67
2023/01/02 12:01:17;;;;;;;10.32;2.00;;;;;;;;;;5106976;28;20105;-67
2023/01/02 12:03:43;;;;;;;11.02;1.88;;;;;;;;;;5103082;28;20035;-66
2023/01/02 12:06:10;;;;;;;10.23;2.30;;;;;;;;;;5096311;28;20059;-67
2023/01/02 12:08:40;;;;;;;11.80;1.70;;;;;;;;;;5094697;28;20046;-67
2023/01/02 12:11:09;;;;;;;15.38;2.38;;;;;;;;;;5104984;28;20054;-66
2023/01/02 12:13:36;;;;;;;7.60;1.45;;;;;;;;;;5104042;28;20440;-66
2023/01/02 12:16:10;;;;;;;12.82;2.30;;;;;;;;;;5104327;28;20422;-66
2023/01/02 12:18:36;;;;;;;;;;;;;;;;;;5102191;28;20062;-66
2023/01/02 12:21:02;;;;;;;11.43;2.20;;;;;;;;;;5105013;27;19938;-66
2023/01/02 12:23:39;;;;;;;14.70;2.63;;;;;;;;;;5104175;28;20043;-65
2023/01/02 12:26:08;;;;;;;14.27;2.45;;;;;;;;;;5093075;28;20192;-65
2023/01/02 12:28:53;;;;;;;12.40;2.15;;;;;;;;;;5103554;28;20048;-65
2023/01/02 12:31:27;;;;;;;11.77;2.20;;;;;;;;;;5102770;28;20479;-66
2023/01/02 12:33:53;;;;;;;13.35;2.03;;;;;;;;;;5105599;28;20036;-65
2023/01/02 12:36:40;;;;;;;24.20;2.78;;;;;;;;;;5104927;28;20574;-65
2023/01/02 12:39:22;;;;;;;18.58;2.70;;;;;;;;;;5092563;28;20073;-65
2023/01/02 12:41:49;;;;;;;17.13;2.60;;;;;;;;;;5096921;28;20066;-65
2023/01/02 12:44:18;;;;;;;12.98;2.05;;;;;;;;;;5101557;28;20055;-66
2023/01/02 12:46:44;;;;;;;18.85;2.40;;;;;;;;;;5103591;28;20395;-65
2023/01/02 12:49:13;;;;;;;18.02;2.95;;;;;;;;;;5105291;28;20361;-65
2023/01/02 12:51:54;;;;;;;19.58;2.55;;;;;;;;;;5105218;28;20043;-65
2023/01/02 12:54:22;;;;;;;21.60;2.88;;;;;;;;;;5095148;28;20509;-65
2023/01/02 12:56:54;;;;;;;19.60;2.38;;;;;;;;;;5104647;28;20383;-64
2023/01/02 12:59:46;;;;;;;28.10;5.03;;;;;;;;;;5090374;28;20044;-65
2023/01/02 13:02:21;;;;;;;16.98;2.90;;;;;;;;;;5104465;28;20067;-65
2023/01/02 13:04:50;;;;;;;17.40;2.63;;;;;;;;;;5090224;28;20040;-65
2023/01/02 13:07:22;;;;;;;23.90;3.50;;;;;;;;;;5103226;28;20101;-65
2023/01/02 13:09:49;;;;;;;24.00;4.00;;;;;;;;;;5104745;28;20055;-65
2023/01/02 13:12:17;;;;;;;16.98;2.53;;;;;;;;;;5092898;28;20098;-65
2023/01/02 13:14:43;;;;;;;19.13;2.92;;;;;;;;;;5104640;28;20040;-65
2023/01/02 13:17:21;;;;;;;19.10;3.28;;;;;;;;;;5090095;28;20044;-65
2023/01/02 13:19:50;;;;;;;18.77;3.13;;;;;;;;;;5104399;28;20039;-65
2023/01/02 13:22:22;;;;;;;16.55;2.40;;;;;;;;;;5091012;28;20141;-65
2023/01/02 13:24:49;;;;;;;26.42;3.72;;;;;;;;;;5105493;28;20074;-65
2023/01/02 13:27:15;;;;;;;17.95;3.63;;;;;;;;;;5101222;28;20047;-65
2023/01/02 13:29:43;;;;;;;18.05;2.83;;;;;;;;;;5105960;28;20065;-65
2023/01/02 13:32:11;;;;;;;24.33;4.43;;;;;;;;;;5090177;28;20134;-65
2023/01/02 13:34:47;;;;;;;24.80;4.60;;;;;;;;;;5104564;28;20403;-66
2023/01/02 13:37:15;;;;;;;23.60;4.30;;;;;;;;;;5102301;28;20143;-67
2023/01/02 13:39:41;;;;;;;26.00;4.00;;;;;;;;;;5104847;28;20039;-66
2023/01/02 13:44:56;;;;;;;17.95;3.38;;;;;;;;;;5102871;28;20031;-67
2023/01/02 13:47:25;;;;;;;20.83;3.20;;;;;;;;;;5096042;28;20174;-67
2023/01/02 13:49:55;;;;;;;22.30;4.20;;;;;;;;;;5092584;28;20451;-67
2023/01/02 13:52:22;;;;;;;20.77;3.35;;;;;;;;;;5101893;28;20035;-66
2023/01/02 13:55:12;;;;;;;19.33;3.83;;;;;;;;;;5103491;28;20047;-67
2023/01/02 13:57:38;;;;;;;25.58;4.20;;;;;;;;;;5101915;28;20036;-67
2023/01/02 14:00:27;;;;;;;19.67;3.70;;;;;;;;;;5104817;28;20382;-67
2023/01/02 14:03:12;;;;;;;9.50;2.50;;;;;;;;;;5102358;28;20556;-67
2023/01/02 14:06:11;;;;;;;18.58;2.85;;;;;;;;;;5099259;28;20248;-66
2023/01/02 14:08:39;;;;;;;21.42;3.35;;;;;;;;;;5100738;28;20470;-66
2023/01/02 14:11:06;;;;;;;19.85;3.40;;;;;;;;;;5091200;28;20054;-66
2023/01/02 14:13:37;;;;;;;16.52;3.22;;;;;;;;;;5098517;28;20390;-67
2023/01/02 14:16:14;;;;;;;17.77;3.38;;;;;;;;;;5093305;28;20059;-67
2023/01/02 14:18:40;;;;;;;16.45;3.35;;;;;;;;;;5094978;28;20039;-67
2023/01/02 14:21:06;;;;;;;19.23;3.95;;;;;;;;;;5104648;28;20357;-67
2023/01/02 14:23:35;;;;;;;17.67;3.67;;;;;;;;;;5091532;28;20203;-67
2023/01/02 14:26:02;;;;;;;17.15;2.88;;;;;;;;;;5106200;28;20047;-67
2023/01/02 14:28:30;;;;;;;19.50;3.85;;;;;;;;;;5107787;28;20058;-67
2023/01/02 14:30:56;;;;;;;21.75;3.47;;;;;;;;;;5108793;28;20032;-66
2023/01/02 14:33:33;;;;;;;20.17;3.30;;;;;;;;;;5108828;28;20048;-66
2023/01/02 14:36:03;;;;;;;14.13;4.28;;;;;;;;;;5105451;28;20035;-66
2023/01/02 14:38:32;;;;;;;13.05;2.92;;;;;;;;;;5095524;28;20048;-64
2023/01/02 14:43:28;;;;;;;22.48;5.13;;;;;;;;;;5104932;28;20589;-67
2023/01/02 14:43:44;;;;;;;19.55;3.83;;;;;;;;;;5104375;28;20044;-67
2023/01/02 14:46:17;;;;;;;23.17;4.57;;;;;;;;;;5103715;28;20085;-67